Time;durP1;ratioP1;P1;durP2;ratioP2;P2;SDS_P1;SDS_P2;PMS_P1;PMS_P2;Temp;Humidity;BMP_temperature;BMP_pressure;BME280_temperature;BME280_humidity;BME280_pressure;Samples;Min_cycle;Max_cycle;Signal;HPM_P1;HPM_P2
2024/01/29 00:00:03;;;;;;;0.40;0.40;;;;;;;6.20;59.31;102952.03;5040426;28;20044;-45
2024/01/29 00:02:30;;;;;;;0.10;0.10;;;;;;;6.19;59.18;102960.75;5045391;28;20388;-47
2024/01/29 00:04:55;;;;;;;0.10;0.10;;;;;;;6.17;59.26;102952.91;5042417;28;20589;-45
2024/01/29 00:07:21;;;;;;;0.10;0.10;;;;;;;6.19;59.32;102955.50;5043815;28;20040;-46
2024/01/29 00:09:47;;;;;;;0.10;0.10;;;;;;;6.19;59.60;102947.66;5029193;28;20597;-49
2024/01/29 00:12:12;;;;;;;0.10;0.10;;;;;;;6.21;59.46;102948.53;5044548;28;20025;-47
2024/01/29 00:14:37;;;;;;;0.10;0.10;;;;;;;6.17;58.97;102944.19;5042249;28;20491;-47
2024/01/29 00:17:03;;;;;;;0.10;0.10;;;;;;;6.16;59.06;102947.69;5045363;28;20032;-43
2024/01/29 00:19:28;;;;;;;0.10;0.10;;;;;;;6.14;58.98;102936.34;5043872;28;20033;-47
2024/01/29 00:21:53;;;;;;;0.10;0.10;;;;;;;6.15;59.39;102940.72;5046549;28;20099;-48
2024/01/29 00:24:18;;;;;;;0.10;0.10;;;;;;;6.14;59.28;102936.34;5041559;28;20041;-46
2024/01/29 00:26:44;;;;;;;0.10;0.10;;;;;;;6.12;59.24;102933.75;5045937;28;20295;-44
2024/01/29 00:29:10;;;;;;;0.10;0.10;;;;;;;6.11;59.13;102932.00;5045039;28;20041;-43
2024/01/29 00:31:35;;;;;;;0.10;0.10;;;;;;;6.13;59.30;102937.22;5042621;28;20079;-43
2024/01/29 00:34:00;;;;;;;0.10;0.10;;;;;;;6.10;59.48;102931.16;5061927;28;20041;-47
2024/01/29 00:36:26;;;;;;;0.10;0.10;;;;;;;6.11;59.45;102924.16;5045895;28;20290;-46
2024/01/29 00:38:51;;;;;;;0.10;0.10;;;;;;;6.12;59.40;102922.44;5048971;28;20530;-45
2024/01/29 00:41:16;;;;;;;0.10;0.10;;;;;;;6.07;58.87;102920.72;5040413;28;20538;-43
2024/01/29 00:43:41;;;;;;;0.10;0.10;;;;;;;6.02;58.91;102922.47;5051324;28;20036;-47
2024/01/29 00:46:07;;;;;;;0.10;0.10;;;;;;;6.06;59.16;102924.19;5043287;28;20186;-48
2024/01/29 00:48:32;;;;;;;0.10;0.10;;;;;;;6.05;59.36;102932.06;5045180;28;20037;-46
2024/01/29 00:50:57;;;;;;;0.10;0.10;;;;;;;6.01;59.62;102931.19;5041012;28;20044;-48
2024/01/29 00:53:22;;;;;;;0.10;0.10;;;;;;;6.00;59.54;102929.44;5049276;28;20037;-46
2024/01/29 00:55:48;;;;;;;0.10;0.10;;;;;;;5.95;59.21;102928.56;5045208;28;20040;-47
2024/01/29 00:58:14;;;;;;;0.10;0.10;;;;;;;5.91;59.11;102919.00;5063837;28;20115;-46
2024/01/29 01:00:39;;;;;;;0.10;0.10;;;;;;;5.92;59.65;102925.97;5041948;28;20031;-47
2024/01/29 01:03:05;;;;;;;2.70;2.60;;;;;;;5.95;60.31;102920.72;5045888;28;20024;-47
2024/01/29 01:05:31;;;;;;;0.10;0.10;;;;;;;5.93;59.95;102910.25;5041696;28;20048;-47
2024/01/29 01:07:57;;;;;;;0.10;0.10;;;;;;;6.00;59.60;102918.97;5045986;28;20143;-46
2024/01/29 01:10:22;;;;;;;0.10;0.10;;;;;;;5.98;59.27;102920.69;5034912;28;20422;-45
2024/01/29 01:12:47;;;;;;;0.10;0.10;;;;;;;5.99;59.22;102911.97;5039858;28;20036;-44
2024/01/29 01:15:13;;;;;;;0.10;0.10;;;;;;;6.00;59.44;102908.53;5043542;28;20041;-45
2024/01/29 01:17:40;;;;;;;0.10;0.10;;;;;;;6.04;59.41;102909.41;5043743;28;20037;-47
2024/01/29 01:20:06;;;;;;;0.10;0.10;;;;;;;6.02;59.24;102900.69;5040790;28;20029;-46
2024/01/29 01:22:31;;;;;;;0.10;0.10;;;;;;;5.95;59.34;102912.88;5045701;28;20025;-45
2024/01/29 01:24:57;;;;;;;0.10;0.10;;;;;;;5.97;59.76;102908.53;5043090;28;20441;-46
2024/01/29 01:27:22;;;;;;;0.10;0.10;;;;;;;5.89;59.08;102905.06;5042954;28;21212;-47
2024/01/29 01:29:47;;;;;;;0.10;0.10;;;;;;;5.83;58.72;102905.06;5042702;28;20047;-46
2024/01/29 01:32:12;;;;;;;0.10;0.10;;;;;;;5.83;58.96;102912.91;5060385;28;20056;-46
2024/01/29 01:34:38;;;;;;;0.10;0.10;;;;;;;5.84;58.91;102899.84;5046579;28;20413;-46
2024/01/29 01:37:03;;;;;;;0.10;0.10;;;;;;;5.81;59.31;102902.47;5042835;28;20128;-46
2024/01/29 01:39:28;;;;;;;0.10;0.10;;;;;;;5.83;59.09;102899.84;5044826;28;20036;-47
2024/01/29 01:41:54;;;;;;;0.10;0.10;;;;;;;5.83;59.35;102897.22;5044750;28;20408;-45
2024/01/29 01:44:19;;;;;;;0.10;0.10;;;;;;;5.88;59.67;102898.09;5024635;28;20045;-46
2024/01/29 01:46:45;;;;;;;0.10;0.10;;;;;;;5.87;59.52;102897.22;5041241;28;20115;-45
2024/01/29 01:49:11;;;;;;;0.10;0.10;;;;;;;5.87;59.42;102896.34;5044862;28;20036;-46
2024/01/29 01:51:37;;;;;;;0.10;0.10;;;;;;;5.86;59.43;102894.59;5044200;28;20115;-46
2024/01/29 01:54:04;;;;;;;0.10;0.10;;;;;;;5.85;59.37;102885.03;5048012;28;20037;-45
2024/01/29 01:56:31;;;;;;;0.10;0.10;;;;;;;5.84;59.76;102884.19;5041852;28;20044;-46
2024/01/29 01:58:59;;;;;;;0.10;0.10;;;;;;;5.84;59.27;102888.50;5042160;28;20061;-45
2024/01/29 02:01:24;;;;;;;0.10;0.10;;;;;;;5.82;59.35;102892.91;5040991;28;20033;-43
2024/01/29 02:03:50;;;;;;;0.10;0.10;;;;;;;5.79;59.32;102896.38;5042780;28;20174;-43
2024/01/29 02:06:15;;;;;;;0.10;0.10;;;;;;;5.77;59.03;102895.50;5040190;28;20395;-49
2024/01/29 02:08:41;;;;;;;0.10;0.10;;;;;;;5.78;59.08;102892.91;5046907;28;20044;-43
2024/01/29 02:11:06;;;;;;;0.10;0.10;;;;;;;5.82;59.35;102887.69;5045048;28;20423;-45
2024/01/29 02:13:32;;;;;;;0.10;0.10;;;;;;;5.80;59.28;102885.06;5046829;28;20061;-45
2024/01/29 02:15:57;;;;;;;0.10;0.10;;;;;;;5.77;58.71;102891.16;5045683;28;20119;-45
2024/01/29 02:18:22;;;;;;;0.10;0.10;;;;;;;5.78;59.40;102882.44;5042546;28;20055;-45
2024/01/29 02:20:48;;;;;;;0.10;0.10;;;;;;;5.78;59.27;102877.22;5045151;28;20404;-46
2024/01/29 02:23:13;;;;;;;0.10;0.10;;;;;;;5.80;59.30;102875.47;5047575;28;20029;-47
2024/01/29 02:25:38;;;;;;;0.05;0.05;;;;;;;5.81;59.36;102876.34;5041848;28;20404;-42
2024/01/29 02:28:04;;;;;;;0.10;0.10;;;;;;;5.82;59.61;102878.09;5043613;28;20272;-46
2024/01/29 02:30:29;;;;;;;0.10;0.10;;;;;;;5.58;59.95;102868.56;5040232;28;20046;-43
2024/01/29 02:32:54;;;;;;;0.10;0.10;;;;;;;5.53;60.10;102872.94;5046988;28;20056;-46
2024/01/29 02:35:20;;;;;;;0.10;0.10;;;;;;;5.46;60.14;102869.47;5038739;28;20090;-45
2024/01/29 02:37:45;;;;;;;0.10;0.10;;;;;;;5.42;60.07;102871.22;5045495;28;20287;-46
2024/01/29 02:40:11;;;;;;;0.10;0.10;;;;;;;5.39;60.16;102870.34;5052429;28;20033;-46
2024/01/29 02:42:36;;;;;;;0.10;0.10;;;;;;;5.33;60.15;102866.03;5042321;28;20024;-47
2024/01/29 02:45:03;;;;;;;0.10;0.10;;;;;;;5.30;60.25;102866.03;5040900;28;20044;-47
2024/01/29 02:47:28;;;;;;;0.10;0.10;;;;;;;5.29;59.98;102861.66;5043896;28;20039;-47
2024/01/29 02:49:54;;;;;;;0.10;0.10;;;;;;;5.26;60.09;102856.44;5042663;28;20033;-47
2024/01/29 02:52:20;;;;;;;0.10;0.10;;;;;;;5.26;60.47;102869.50;5041400;28;20029;-47
2024/01/29 02:54:46;;;;;;;0.10;0.10;;;;;;;5.24;60.70;102863.41;5038542;28;20820;-47
2024/01/29 02:57:11;;;;;;;0.10;0.10;;;;;;;5.23;60.75;102859.94;5043061;28;20036;-47
2024/01/29 02:59:37;;;;;;;0.10;0.10;;;;;;;5.22;60.63;102870.41;5046133;28;20039;-45
2024/01/29 03:02:03;;;;;;;0.10;0.10;;;;;;;5.19;60.86;102866.91;5042556;28;20052;-46
2024/01/29 03:04:28;;;;;;;0.10;0.10;;;;;;;5.18;60.49;102874.72;5042212;28;20029;-47
2024/01/29 03:06:54;;;;;;;0.10;0.10;;;;;;;5.14;60.69;102871.25;5043387;28;20033;-47
2024/01/29 03:09:19;;;;;;;0.10;0.10;;;;;;;5.12;61.10;102870.38;5041086;28;20037;-45
2024/01/29 03:11:44;;;;;;;0.10;0.10;;;;;;;5.08;60.91;102871.25;5045128;28;20091;-46
2024/01/29 03:14:10;;;;;;;0.10;0.10;;;;;;;5.08;60.79;102857.34;5044435;28;20037;-48
2024/01/29 03:16:36;;;;;;;0.10;0.10;;;;;;;5.09;60.52;102859.09;5045704;28;20392;-48
2024/01/29 03:19:01;;;;;;;0.10;0.10;;;;;;;5.09;60.46;102852.09;5042326;28;20036;-48
2024/01/29 03:21:27;;;;;;;0.10;0.10;;;;;;;5.06;60.72;102849.53;5039801;28;20033;-48
2024/01/29 03:23:53;;;;;;;0.10;0.10;;;;;;;5.10;60.30;102847.78;5059711;28;20449;-47
2024/01/29 03:26:18;;;;;;;0.10;0.10;;;;;;;5.16;60.86;102851.25;5046569;28;20029;-48
2024/01/29 03:28:44;;;;;;;0.10;0.10;;;;;;;5.13;60.51;102843.41;5050810;28;20044;-47
2024/01/29 03:31:09;;;;;;;0.10;0.10;;;;;;;5.15;60.48;102846.91;5044771;28;20769;-48
2024/01/29 03:33:37;;;;;;;0.10;0.10;;;;;;;5.14;60.07;102844.31;5031120;28;20517;-48
2024/01/29 03:36:04;;;;;;;0.10;0.10;;;;;;;5.10;60.32;102846.03;5062385;28;20041;-38
2024/01/29 03:38:29;;;;;;;0.10;0.10;;;;;;;5.11;60.35;102841.69;5050770;28;20032;-40
2024/01/29 03:40:54;;;;;;;0.10;0.10;;;;;;;5.08;60.42;102839.06;5047896;28;20082;-41
2024/01/29 03:43:20;;;;;;;0.10;0.10;;;;;;;5.07;60.49;102840.81;5046796;28;20075;-43
2024/01/29 03:45:46;;;;;;;0.10;0.10;;;;;;;5.06;60.56;102840.81;5038620;28;20523;-38
2024/01/29 03:48:11;;;;;;;0.10;0.10;;;;;;;5.02;60.27;102842.56;5044875;28;20131;-43
2024/01/29 03:50:36;;;;;;;0.10;0.10;;;;;;;5.04;60.50;102838.22;5045296;28;20670;-40
2024/01/29 03:53:02;;;;;;;0.25;0.25;;;;;;;5.06;60.93;102841.69;5043668;28;20025;-40
2024/01/29 03:55:27;;;;;;;0.10;0.10;;;;;;;5.01;60.66;102830.38;5048097;28;20033;-38
2024/01/29 03:57:52;;;;;;;0.10;0.10;;;;;;;4.98;60.80;102833.00;5047912;28;20096;-39
2024/01/29 04:00:18;;;;;;;0.10;0.10;;;;;;;4.97;60.89;102829.53;5043155;28;20295;-38
2024/01/29 04:02:46;;;;;;;0.10;0.10;;;;;;;4.95;60.49;102825.16;5043569;28;20052;-39
2024/01/29 04:05:12;;;;;;;0.10;0.10;;;;;;;4.92;60.54;102823.44;5046078;28;20033;-38
2024/01/29 04:07:37;;;;;;;0.10;0.10;;;;;;;4.91;60.84;102826.06;5048343;28;20040;-38
2024/01/29 04:10:02;;;;;;;0.10;0.10;;;;;;;4.86;60.50;102813.88;5047693;28;20111;-39
2024/01/29 04:12:28;;;;;;;0.10;0.10;;;;;;;4.89;61.04;102826.03;5041868;28;20412;-39
2024/01/29 04:14:53;;;;;;;0.10;0.10;;;;;;;4.88;60.94;102819.97;5046887;28;20475;-39
2024/01/29 04:17:18;;;;;;;0.10;0.10;;;;;;;4.90;60.90;102816.50;5049746;28;20302;-37
2024/01/29 04:19:44;;;;;;;0.10;0.10;;;;;;;4.86;60.84;102813.88;5046472;28;20345;-39
2024/01/29 04:22:09;;;;;;;0.10;0.10;;;;;;;4.84;60.75;102815.59;5046917;28;20029;-36
2024/01/29 04:24:34;;;;;;;0.10;0.10;;;;;;;4.86;60.83;102818.19;5051045;28;20151;-39
2024/01/29 04:27:00;;;;;;;0.10;0.10;;;;;;;4.86;60.91;102807.78;5047227;28;20033;-39
2024/01/29 04:29:25;;;;;;;0.10;0.10;;;;;;;4.88;61.31;102813.84;5046428;28;20124;-38
2024/01/29 04:31:51;;;;;;;0.10;0.10;;;;;;;4.85;60.69;102804.31;5021893;28;25615;-39
2024/01/29 04:34:16;;;;;;;0.10;0.10;;;;;;;4.83;60.56;102800.81;5046283;28;20108;-39
2024/01/29 04:36:42;;;;;;;0.10;0.10;;;;;;;4.86;61.04;102800.81;5048754;28;20119;-39
2024/01/29 04:39:07;;;;;;;0.10;0.10;;;;;;;4.84;61.00;102799.97;5046218;28;20037;-40
2024/01/29 04:41:33;;;;;;;0.10;0.10;;;;;;;4.81;60.73;102799.09;5045865;28;20037;-39
2024/01/29 04:43:58;;;;;;;0.10;0.10;;;;;;;4.80;60.75;102805.19;5046752;28;20063;-39
2024/01/29 04:46:23;;;;;;;0.10;0.10;;;;;;;4.79;61.00;102809.50;5045081;28;20032;-39
2024/01/29 04:48:49;;;;;;;0.10;0.10;;;;;;;4.80;60.83;102805.19;5046210;28;20500;-39
2024/01/29 04:51:14;;;;;;;0.10;0.10;;;;;;;4.79;60.97;102798.22;5048858;28;20066;-39
2024/01/29 04:53:40;;;;;;;0.10;0.10;;;;;;;4.78;60.91;102806.91;5051551;28;20041;-39
2024/01/29 04:56:05;;;;;;;0.10;0.10;;;;;;;4.81;61.17;102797.34;5046647;28;20552;-40
2024/01/29 04:58:31;;;;;;;0.10;0.10;;;;;;;4.86;60.98;102802.56;5052049;28;20141;-40
2024/01/29 05:00:56;;;;;;;0.10;0.10;;;;;;;4.92;61.61;102799.06;5046752;28;20483;-40
2024/01/29 05:03:21;;;;;;;0.10;0.10;;;;;;;4.91;61.45;102798.22;5045465;28;20025;-41
2024/01/29 05:05:47;;;;;;;0.10;0.10;;;;;;;4.93;61.26;102790.38;5034299;28;20047;-41
2024/01/29 05:08:13;;;;;;;0.10;0.10;;;;;;;4.90;61.04;102799.06;5047194;28;20017;-40
2024/01/29 05:10:39;;;;;;;0.10;0.10;;;;;;;4.90;60.91;102806.06;5050788;28;20075;-41
2024/01/29 05:13:04;;;;;;;0.20;0.20;;;;;;;4.89;60.75;102797.34;5046304;28;20368;-39
2024/01/29 05:15:29;;;;;;;0.10;0.10;;;;;;;4.87;60.92;102797.34;5035744;28;20076;-41
2024/01/29 05:17:56;;;;;;;0.10;0.10;;;;;;;4.90;60.98;102800.84;5043818;28;20095;-40
2024/01/29 05:20:21;;;;;;;0.10;0.10;;;;;;;4.96;61.12;102800.81;5053505;28;20033;-38
2024/01/29 05:22:46;;;;;;;0.10;0.10;;;;;;;4.94;61.03;102795.59;5042675;28;20039;-35
2024/01/29 05:25:12;;;;;;;0.10;0.10;;;;;;;4.92;61.45;102792.13;5047609;28;20766;-38
2024/01/29 05:27:37;;;;;;;0.10;0.10;;;;;;;4.93;61.23;102795.59;5045639;28;20033;-41
2024/01/29 05:30:03;;;;;;;0.10;0.10;;;;;;;4.93;61.44;102787.75;5044059;28;20028;-37
2024/01/29 05:32:28;;;;;;;0.10;0.10;;;;;;;4.90;61.06;102778.22;5043756;28;20924;-40
2024/01/29 05:34:53;;;;;;;0.10;0.10;;;;;;;4.94;60.99;102781.69;5047002;28;20043;-38
2024/01/29 05:37:18;;;;;;;0.52;0.52;;;;;;;4.94;61.13;102784.28;5030848;28;20039;-35
2024/01/29 05:39:44;;;;;;;0.10;0.10;;;;;;;4.95;60.78;102794.75;5045076;28;20477;-39
2024/01/29 05:42:09;;;;;;;0.10;0.10;;;;;;;5.00;61.33;102799.94;5044196;28;20032;-39
2024/01/29 05:44:34;;;;;;;0.20;0.20;;;;;;;5.01;61.28;102801.69;5041884;28;20033;-38
2024/01/29 05:46:59;;;;;;;0.10;0.10;;;;;;;5.03;60.97;102792.97;5031137;28;20045;-39
2024/01/29 05:49:25;;;;;;;0.10;0.10;;;;;;;5.04;60.71;102797.31;5042723;28;20024;-37
2024/01/29 05:51:50;;;;;;;0.20;0.20;;;;;;;5.05;60.84;102800.81;5046822;28;20395;-36
2024/01/29 05:54:15;;;;;;;0.10;0.10;;;;;;;5.04;60.58;102794.72;5046561;28;20032;-38
2024/01/29 05:56:42;;;;;;;0.10;0.10;;;;;;;5.04;60.61;102789.50;5045885;28;20549;-37
2024/01/29 05:59:08;;;;;;;0.10;0.10;;;;;;;5.05;60.75;102782.56;5047816;28;20025;-38
2024/01/29 06:01:33;;;;;;;0.10;0.10;;;;;;;5.05;60.80;102785.16;5046340;28;20029;-37
2024/01/29 06:03:59;;;;;;;0.10;0.10;;;;;;;5.09;60.83;102784.25;5045467;28;20034;-38
2024/01/29 06:06:24;;;;;;;0.10;0.10;;;;;;;5.09;60.93;102786.88;5045227;28;20071;-38
2024/01/29 06:08:49;;;;;;;0.10;0.10;;;;;;;5.11;61.42;102779.91;5046632;28;20647;-39
2024/01/29 06:11:14;;;;;;;0.10;0.10;;;;;;;5.13;61.07;102782.53;5044804;28;20060;-38
2024/01/29 06:13:40;;;;;;;0.33;0.33;;;;;;;5.11;60.93;102785.13;5047682;28;20037;-38
2024/01/29 06:16:05;;;;;;;0.10;0.10;;;;;;;5.13;61.29;102787.75;5045299;28;20598;-41
2024/01/29 06:18:30;;;;;;;0.10;0.10;;;;;;;5.11;60.57;102784.28;5046860;28;20078;-41
2024/01/29 06:20:56;;;;;;;0.10;0.10;;;;;;;5.09;60.60;102786.88;5039810;28;20603;-35
2024/01/29 06:23:21;;;;;;;0.10;0.10;;;;;;;5.09;60.64;102788.63;5048048;28;20053;-39
2024/01/29 06:25:47;;;;;;;0.10;0.10;;;;;;;5.11;60.87;102779.91;5043704;28;20030;-40
2024/01/29 06:28:12;;;;;;;0.10;0.10;;;;;;;5.10;60.14;102783.38;5046180;28;20025;-35
2024/01/29 06:30:37;;;;;;;0.10;0.10;;;;;;;5.10;60.10;102782.53;5056871;28;20402;-40
2024/01/29 06:33:03;;;;;;;0.10;0.10;;;;;;;5.11;60.29;102781.66;5045102;28;20028;-42
2024/01/29 06:35:28;;;;;;;0.10;0.10;;;;;;;5.11;60.33;102785.13;5043960;28;20037;-39
2024/01/29 06:37:54;;;;;;;0.10;0.10;;;;;;;5.08;59.89;102785.13;5038711;28;20037;-37
2024/01/29 06:40:22;;;;;;;0.10;0.10;;;;;;;5.12;60.49;102775.56;5045381;28;20883;-40
2024/01/29 06:42:48;;;;;;;0.10;0.10;;;;;;;5.13;60.09;102775.56;5042288;28;20021;-40
2024/01/29 06:45:13;;;;;;;0.10;0.10;;;;;;;5.11;60.01;102776.44;5047130;28;20507;-39
2024/01/29 06:47:38;;;;;;;0.10;0.10;;;;;;;5.11;59.81;102777.31;5039905;28;20041;-38
2024/01/29 06:50:04;;;;;;;0.10;0.10;;;;;;;5.15;60.00;102770.31;5036659;28;22055;-37
2024/01/29 06:52:30;;;;;;;0.10;0.10;;;;;;;5.16;60.30;102778.16;5045925;28;20029;-37
2024/01/29 06:54:55;;;;;;;0.10;0.10;;;;;;;5.19;59.88;102780.78;5058583;28;20162;-38
2024/01/29 06:57:20;;;;;;;0.10;0.10;;;;;;;5.22;59.63;102786.88;5046881;28;20036;-37
2024/01/29 06:59:45;;;;;;;0.10;0.10;;;;;;;5.23;59.35;102781.63;5046511;28;20029;-36
2024/01/29 07:02:11;;;;;;;0.10;0.10;;;;;;;5.23;59.34;102779.03;5032371;28;20052;-39
2024/01/29 07:04:36;;;;;;;0.10;0.10;;;;;;;5.27;59.75;102780.75;5043073;28;20079;-38
2024/01/29 07:07:02;;;;;;;0.10;0.10;;;;;;;5.31;59.95;102784.22;5048458;28;20027;-36
2024/01/29 07:09:27;;;;;;;0.10;0.10;;;;;;;5.31;60.09;102790.31;5046392;28;20033;-37
2024/01/29 07:11:53;;;;;;;0.10;0.10;;;;;;;5.30;59.52;102779.88;5044721;28;20037;-39
2024/01/29 07:14:18;;;;;;;0.10;0.10;;;;;;;5.28;59.60;102781.63;5056151;28;20048;-38
2024/01/29 07:16:43;;;;;;;0.10;0.10;;;;;;;5.27;59.33;102775.53;5041676;28;20041;-38
2024/01/29 07:19:09;;;;;;;0.10;0.10;;;;;;;5.30;59.72;102770.28;5049317;28;20487;-36
2024/01/29 07:21:34;;;;;;;0.10;0.10;;;;;;;5.34;59.84;102771.16;5038187;28;20044;-38
2024/01/29 07:24:00;;;;;;;0.10;0.10;;;;;;;5.36;59.65;102778.97;5044374;28;20044;-38
2024/01/29 07:26:25;;;;;;;0.10;0.10;;;;;;;5.38;59.94;102778.09;5032351;28;20055;-38
2024/01/29 07:28:50;;;;;;;0.10;0.10;;;;;;;5.40;59.70;102773.75;5049038;28;20033;-37
2024/01/29 07:31:17;;;;;;;0.10;0.10;;;;;;;5.41;60.01;102772.88;5042263;28;20029;-38
2024/01/29 07:33:43;;;;;;;0.10;0.10;;;;;;;5.44;60.35;102772.00;5052642;28;20029;-36
2024/01/29 07:36:08;;;;;;;0.10;0.10;;;;;;;5.51;60.11;102778.06;5052613;28;20032;-37
2024/01/29 07:38:33;;;;;;;0.10;0.10;;;;;;;5.53;60.00;102777.19;5059871;28;20663;-35
2024/01/29 07:40:59;;;;;;;0.10;0.10;;;;;;;5.51;59.86;102780.69;5053126;28;20398;-37
2024/01/29 07:43:24;;;;;;;0.10;0.10;;;;;;;5.53;59.71;102768.47;5050255;28;20744;-39
2024/01/29 07:45:50;;;;;;;0.10;0.10;;;;;;;5.58;60.20;102766.72;5052199;28;20033;-37
2024/01/29 07:48:16;;;;;;;0.10;0.10;;;;;;;5.58;60.06;102779.78;5047711;28;20035;-37
2024/01/29 07:50:41;;;;;;;0.10;0.10;;;;;;;5.59;59.73;102776.28;5053763;28;20020;-36
2024/01/29 07:53:06;;;;;;;0.10;0.10;;;;;;;5.62;59.67;102771.06;5050412;28;20025;-37
2024/01/29 07:55:31;;;;;;;0.10;0.10;;;;;;;5.64;59.34;102766.69;5032079;28;20033;-40
2024/01/29 07:57:57;;;;;;;0.10;0.10;;;;;;;5.64;59.73;102769.31;5046575;28;20072;-37
2024/01/29 08:00:22;;;;;;;0.10;0.10;;;;;;;5.69;59.78;102766.69;5047584;28;20036;-38
2024/01/29 08:02:48;;;;;;;0.10;0.10;;;;;;;5.73;59.97;102764.03;5048950;28;20150;-39
2024/01/29 08:05:13;;;;;;;0.10;0.10;;;;;;;5.78;60.24;102766.63;5046127;28;20041;-39
2024/01/29 08:07:38;;;;;;;0.10;0.10;;;;;;;5.79;59.56;102771.84;5051854;28;20039;-39
2024/01/29 08:10:04;;;;;;;0.10;0.10;;;;;;;5.85;59.58;102765.72;5047118;28;20530;-39
2024/01/29 08:12:29;;;;;;;0.10;0.10;;;;;;;5.92;59.71;102767.41;5050612;28;20017;-38
2024/01/29 08:14:55;;;;;;;0.10;0.10;;;;;;;5.94;59.91;102772.66;5044742;28;20029;-37
2024/01/29 08:17:20;;;;;;;0.10;0.10;;;;;;;5.95;59.52;102762.16;5045424;28;20058;-35
2024/01/29 08:19:45;;;;;;;0.10;0.10;;;;;;;6.01;59.52;102768.28;5051689;28;20500;-37
2024/01/29 08:22:11;;;;;;;0.00;0.00;;;;;;;6.00;59.07;102772.63;5031396;28;20056;-36
2024/01/29 08:24:37;;;;;;;0.10;0.10;;;;;;;6.09;59.21;102777.81;5048494;28;20387;-36
2024/01/29 08:27:02;;;;;;;0.10;0.10;;;;;;;6.13;59.46;102772.53;5045026;28;20280;-37
2024/01/29 08:29:27;;;;;;;0.10;0.10;;;;;;;6.20;59.58;102771.63;5049227;28;20033;-35
2024/01/29 08:31:53;;;;;;;0.10;0.10;;;;;;;6.23;59.41;102763.78;5052027;28;20025;-38
2024/01/29 08:34:18;;;;;;;0.10;0.10;;;;;;;6.27;59.36;102765.50;5050061;28;20364;-38
2024/01/29 08:36:43;;;;;;;0.10;0.10;;;;;;;6.28;58.95;102756.75;5056084;28;20267;-38
2024/01/29 08:39:09;;;;;;;0.10;0.10;;;;;;;6.35;59.64;102755.84;5069558;28;20056;-38
2024/01/29 08:41:34;;;;;;;0.10;0.10;;;;;;;6.44;59.58;102751.41;5056290;28;20282;-38
2024/01/29 08:43:59;;;;;;;0.10;0.10;;;;;;;6.47;59.38;102749.66;5048635;28;20075;-38
2024/01/29 08:46:24;;;;;;;0.10;0.10;;;;;;;6.54;59.97;102756.56;5067447;28;20025;-38
2024/01/29 08:48:50;;;;;;;0.10;0.10;;;;;;;6.59;59.85;102750.44;5050547;28;20033;-37
2024/01/29 08:51:15;;;;;;;0.10;0.10;;;;;;;6.65;59.27;102751.25;5034065;28;20028;-39
2024/01/29 08:53:40;;;;;;;0.10;0.10;;;;;;;6.67;57.95;102744.25;5052056;28;20032;-38
2024/01/29 08:56:09;;;;;;;0.10;0.10;;;;;;;6.74;58.19;102747.66;5049599;28;20039;-37
2024/01/29 08:58:34;;;;;;;0.10;0.10;;;;;;;6.74;57.48;102759.88;5039132;28;20282;-37
2024/01/29 09:00:59;;;;;;;0.10;0.10;;;;;;;6.82;58.21;102758.06;5050833;28;20045;-37
2024/01/29 09:03:25;;;;;;;0.10;0.10;;;;;;;6.86;58.44;102765.00;5051443;28;20785;-38
2024/01/29 09:05:50;;;;;;;0.10;0.10;;;;;;;6.92;58.88;102764.09;5052311;28;20101;-38
2024/01/29 09:08:16;;;;;;;0.10;0.10;;;;;;;6.95;58.36;102758.81;5052683;28;20044;-38
2024/01/29 09:10:41;;;;;;;0.10;0.10;;;;;;;6.97;58.54;102757.91;5049592;28;20505;-39
2024/01/29 09:13:06;;;;;;;0.10;0.10;;;;;;;7.04;58.59;102757.84;5045122;28;20398;-38
2024/01/29 09:15:32;;;;;;;0.10;0.10;;;;;;;7.07;58.31;102757.81;5050553;28;20279;-39
2024/01/29 09:17:57;;;;;;;0.10;0.10;;;;;;;7.11;57.38;102754.28;5023457;28;20040;-39
2024/01/29 09:20:22;;;;;;;0.10;0.10;;;;;;;7.15;56.76;102745.53;5039085;28;20040;-39
2024/01/29 09:22:48;;;;;;;0.10;0.10;;;;;;;7.23;55.64;102741.03;5029759;28;20291;-39
2024/01/29 09:25:13;;;;;;;0.10;0.10;;;;;;;7.29;55.32;102743.59;5045505;28;20586;-39
2024/01/29 09:27:39;;;;;;;0.10;0.10;;;;;;;7.36;55.91;102747.00;5048072;28;20037;-39
2024/01/29 09:30:05;;;;;;;0.10;0.10;;;;;;;7.40;54.99;102746.09;5051999;28;20422;-39
2024/01/29 09:32:31;;;;;;;0.10;0.10;;;;;;;7.50;56.03;102746.81;5047628;28;20207;-38
2024/01/29 09:34:56;;;;;;;0.10;0.10;;;;;;;7.53;54.94;102749.41;5048417;28;20110;-39
2024/01/29 09:37:21;;;;;;;1.50;1.40;;;;;;;7.58;54.87;102751.97;5047548;28;20400;-38
2024/01/29 09:39:47;;;;;;;0.10;0.10;;;;;;;7.67;55.61;102748.38;5047205;28;20029;-39
2024/01/29 09:42:24;;;;;;;0.10;0.10;;;;;;;7.75;55.21;102757.00;5048441;28;20773;-38
2024/01/29 09:44:52;;;;;;;0.10;0.10;;;;;;;7.81;55.78;102749.03;5046499;28;20025;-39
2024/01/29 09:47:19;;;;;;;0.00;0.00;;;;;;;7.90;55.60;102748.94;5045419;28;20155;-40
2024/01/29 09:49:45;;;;;;;0.10;0.10;;;;;;;7.93;55.29;102745.38;5045139;28;20040;-39
2024/01/29 09:52:14;;;;;;;0.05;0.05;;;;;;;7.96;54.01;102747.09;5042700;28;20125;-37
2024/01/29 09:54:41;;;;;;;0.10;0.10;;;;;;;8.02;54.18;102734.75;5045950;28;20029;-40
2024/01/29 09:57:12;;;;;;;0.10;0.10;;;;;;;8.08;53.59;102736.44;5048008;28;20097;-35
2024/01/29 09:59:40;;;;;;;0.10;0.10;;;;;;;8.15;53.75;102740.69;5029396;28;20059;-39
2024/01/29 10:02:08;;;;;;;0.10;0.10;;;;;;;8.19;54.11;102737.13;5046762;28;20037;-39
2024/01/29 10:04:33;;;;;;;0.10;0.10;;;;;;;8.22;52.68;102737.09;5046739;28;20139;-38
2024/01/29 10:06:58;;;;;;;0.10;0.10;;;;;;;8.29;53.11;102731.72;5042999;28;20116;-39
2024/01/29 10:09:24;;;;;;;0.10;0.10;;;;;;;8.35;53.22;102723.78;5045038;28;20091;-42
2024/01/29 10:11:49;;;;;;;0.10;0.10;;;;;;;8.43;53.79;102724.50;5046255;28;20388;-39
2024/01/29 10:14:15;;;;;;;0.10;0.10;;;;;;;8.45;51.72;102725.34;5029140;28;20123;-38
2024/01/29 10:16:41;;;;;;;0.10;0.10;;;;;;;8.53;52.69;102715.63;5049218;28;20100;-37
2024/01/29 10:19:06;;;;;;;0.10;0.10;;;;;;;8.56;51.20;102713.81;5050364;28;20033;-38
2024/01/29 10:21:39;;;;;;;0.10;0.10;;;;;;;8.62;50.61;102713.72;5044638;28;20063;-40
2024/01/29 10:24:05;;;;;;;0.10;0.10;;;;;;;8.67;51.24;102709.28;5049972;28;20037;-39
2024/01/29 10:26:30;;;;;;;0.00;0.00;;;;;;;8.74;51.03;102723.16;5050339;28;20499;-39
2024/01/29 10:29:03;;;;;;;0.10;0.10;;;;;;;8.82;51.95;102727.38;5007840;28;20065;-39
2024/01/29 10:31:29;;;;;;;0.10;0.10;;;;;;;8.82;50.51;102727.38;5042809;28;20025;-39
2024/01/29 10:33:54;;;;;;;0.10;0.10;;;;;;;8.87;51.00;102729.00;5046552;28;20037;-39
2024/01/29 10:36:20;;;;;;;0.10;0.10;;;;;;;8.92;48.94;102721.94;5053104;28;20037;-40
2024/01/29 10:38:46;;;;;;;0.10;0.10;;;;;;;8.98;51.21;102712.16;5048726;28;20029;-40
2024/01/29 10:41:16;;;;;;;6.47;4.38;;;;;;;9.03;51.52;102719.09;5046536;28;20499;-41
2024/01/29 10:43:46;;;;;;;0.10;0.10;;;;;;;9.04;51.12;102716.44;5048446;28;20040;-40
2024/01/29 10:46:12;;;;;;;0.10;0.10;;;;;;;9.01;49.27;102711.22;5049171;28;20173;-40
2024/01/29 10:48:38;;;;;;;0.10;0.10;;;;;;;9.07;51.11;102713.75;5049682;28;20032;-46
2024/01/29 10:51:05;;;;;;;0.00;0.00;;;;;;;9.11;51.88;102712.81;5039690;28;20257;-41
2024/01/29 10:53:32;;;;;;;0.10;0.10;;;;;;;9.12;51.82;102708.41;5045925;28;20036;-40
2024/01/29 10:55:58;;;;;;;0.10;0.10;;;;;;;9.11;50.61;102704.94;5051862;28;20037;-41
2024/01/29 10:58:24;;;;;;;0.10;0.10;;;;;;;9.19;52.28;102703.88;5045307;28;20040;-41
2024/01/29 11:00:51;;;;;;;0.10;0.10;;;;;;;9.15;49.62;102697.84;5048679;28;20048;-43
2024/01/29 11:03:20;;;;;;;0.10;0.10;;;;;;;9.23;51.53;102701.16;5049987;28;20032;-39
2024/01/29 11:05:50;;;;;;;0.00;0.00;;;;;;;9.28;50.92;102698.47;5047425;28;20021;-40
2024/01/29 11:08:25;;;;;;;0.10;0.10;;;;;;;9.33;51.90;102696.59;5051645;28;20078;-40
2024/01/29 11:10:50;;;;;;;0.08;0.08;;;;;;;9.36;51.48;102691.28;5055521;28;20360;-39
2024/01/29 11:13:19;;;;;;;0.10;0.10;;;;;;;9.41;52.45;102694.69;5052520;28;20025;-39
2024/01/29 11:15:44;;;;;;;0.10;0.10;;;;;;;9.43;51.85;102695.50;5052589;28;20037;-39
2024/01/29 11:18:13;;;;;;;0.10;0.10;;;;;;;9.48;50.91;102689.25;5044943;28;20891;-40
2024/01/29 11:20:41;;;;;;;0.10;0.10;;;;;;;9.44;48.21;102689.34;5048937;28;20479;-39
2024/01/29 11:23:09;;;;;;;0.75;0.75;;;;;;;9.53;48.49;102687.41;5045782;28;20029;-40
2024/01/29 11:25:37;;;;;;;0.10;0.10;;;;;;;9.64;50.44;102695.06;5046470;28;20810;-45